Time;durP1;ratioP1;P1;durP2;ratioP2;P2;SDS_P1;SDS_P2;PMS_P1;PMS_P2;Temp;Humidity;BMP_temperature;BMP_pressure;BME280_temperature;BME280_humidity;BME280_pressure;Samples;Min_cycle;Max_cycle;Signal;HPM_P1;HPM_P2
2022/06/01 00:01:08;;;;;;;4.13;1.07;;;12.30;41.60;;;;;;4937408;28;20226;-77
2022/06/01 00:03:40;;;;;;;1.37;1.00;;;12.30;41.30;;;;;;4954430;28;20724;-76
2022/06/01 00:06:08;;;;;;;2.30;1.00;;;12.30;41.10;;;;;;4954267;28;20657;-78
2022/06/01 00:08:35;;;;;;;1.00;0.90;;;12.30;41.30;;;;;;4937487;29;20182;-75
2022/06/01 00:11:04;;;;;;;1.13;0.90;;;12.40;40.90;;;;;;4955653;28;20176;-75
2022/06/01 00:13:32;;;;;;;1.50;0.87;;;12.50;40.50;;;;;;4954668;28;20187;-74
2022/06/01 00:15:59;;;;;;;1.43;1.00;;;12.40;40.90;;;;;;4959187;28;20245;-74
2022/06/01 00:18:27;;;;;;;1.00;0.90;;;12.50;41.20;;;;;;4954520;28;20569;-75
2022/06/01 00:20:54;;;;;;;2.10;0.80;;;12.70;41.40;;;;;;4955244;28;20197;-73
2022/06/01 00:23:22;;;;;;;1.00;1.00;;;12.80;40.60;;;;;;4955096;29;20211;-76
2022/06/01 00:25:50;;;;;;;1.60;0.90;;;12.80;40.40;;;;;;4954327;28;20717;-75
2022/06/01 00:28:18;;;;;;;0.80;0.80;;;12.80;39.20;;;;;;4951716;28;20187;-76
2022/06/01 00:30:45;;;;;;;0.87;0.83;;;12.80;38.90;;;;;;4959435;28;20241;-74
2022/06/01 00:33:13;;;;;;;3.50;1.03;;;12.70;39.40;;;;;;4955270;28;20274;-74
2022/06/01 00:35:40;;;;;;;3.07;0.80;;;12.80;39.60;;;;;;4951461;28;20196;-74
2022/06/01 00:38:09;;;;;;;2.50;0.90;;;12.80;39.50;;;;;;4954641;28;20195;-73
2022/06/01 00:40:36;;;;;;;3.77;0.90;;;12.80;39.10;;;;;;4953798;28;20285;-73
2022/06/01 00:43:21;;;;;;;3.40;0.90;;;12.80;38.70;;;;;;4953406;29;20367;-75
2022/06/01 00:45:49;;;;;;;2.00;0.90;;;12.90;39.50;;;;;;4954585;29;20194;-73
2022/06/01 00:48:18;;;;;;;1.37;1.00;;;13.10;39.20;;;;;;4954171;28;20179;-74
2022/06/01 00:50:46;;;;;;;3.67;1.00;;;13.00;38.00;;;;;;4954426;28;20238;-74
2022/06/01 00:53:24;;;;;;;6.33;0.93;;;13.10;38.60;;;;;;4953148;28;20248;-76
2022/06/01 00:55:57;;;;;;;4.40;1.00;;;13.00;38.50;;;;;;4951306;28;20178;-73
2022/06/01 00:58:31;;;;;;;2.50;0.70;;;13.20;38.70;;;;;;4952914;29;20191;-74
2022/06/01 01:00:59;;;;;;;1.30;0.80;;;13.30;38.60;;;;;;4954790;28;20234;-73
2022/06/01 01:03:33;;;;;;;1.80;0.90;;;13.40;37.80;;;;;;4954026;28;20225;-73
2022/06/01 01:06:18;;;;;;;4.30;1.00;;;13.20;37.80;;;;;;4954752;28;20178;-75
2022/06/01 01:08:47;;;;;;;3.23;0.80;;;13.40;37.50;;;;;;4954792;28;20183;-72
2022/06/01 01:11:17;;;;;;;1.10;0.83;;;13.50;37.50;;;;;;4954285;29;20175;-74
2022/06/01 01:13:48;;;;;;;0.80;0.80;;;13.40;37.30;;;;;;4953206;28;20198;-74
2022/06/01 01:16:16;;;;;;;1.47;0.77;;;13.80;37.80;;;;;;4953686;28;20271;-74
2022/06/01 01:18:46;;;;;;;3.17;0.90;;;13.90;36.70;;;;;;4972937;28;20191;-72
2022/06/01 01:21:46;;;;;;;1.27;0.87;;;13.80;36.80;;;;;;4954521;29;20227;-75
2022/06/01 01:25:07;;;;;;;0.80;0.80;;;13.90;37.40;;;;;;4936644;28;20214;-69
2022/06/01 01:27:34;;;;;;;2.87;0.80;;;14.00;36.90;;;;;;4858261;29;20196;-76
2022/06/01 01:30:21;;;;;;;3.53;0.80;;;14.00;36.80;;;;;;4946958;28;20191;-77
2022/06/01 01:32:49;;;;;;;1.27;0.80;;;14.10;36.00;;;;;;4954366;29;20179;-72
2022/06/01 01:35:16;;;;;;;0.70;0.70;;;14.10;35.50;;;;;;4954288;28;20202;-72
2022/06/01 01:37:44;;;;;;;3.23;1.10;;;14.20;35.30;;;;;;4954303;29;20262;-73
2022/06/01 01:40:12;;;;;;;0.70;0.70;;;14.00;34.70;;;;;;4953615;29;20171;-73
2022/06/01 01:42:39;;;;;;;4.53;0.80;;;13.80;34.70;;;;;;4951572;28;20179;-73
2022/06/01 01:45:24;;;;;;;1.27;0.80;;;13.80;34.90;;;;;;4953162;28;20187;-74
2022/06/01 01:47:53;;;;;;;0.77;0.70;;;14.00;34.60;;;;;;4954276;28;20186;-72
2022/06/01 01:50:21;;;;;;;1.57;0.80;;;14.10;34.00;;;;;;4952183;28;20379;-75
2022/06/01 01:52:49;;;;;;;0.90;0.90;;;13.90;33.20;;;;;;4944192;28;20176;-73
2022/06/01 01:55:16;;;;;;;2.43;0.90;;;13.90;34.00;;;;;;4953987;28;20643;-75
2022/06/01 01:58:01;;;;;;;0.83;0.80;;;14.00;34.20;;;;;;4952003;28;20665;-72
2022/06/01 02:00:34;;;;;;;1.20;0.67;;;14.10;33.90;;;;;;4950125;28;20661;-74
2022/06/01 02:03:22;;;;;;;1.77;0.80;;;14.20;33.50;;;;;;4953130;28;20287;-74
2022/06/01 02:06:14;;;;;;;0.90;0.87;;;14.10;33.60;;;;;;4953307;28;20208;-72
2022/06/01 02:09:06;;;;;;;3.80;0.80;;;14.00;33.60;;;;;;4930909;29;20593;-77
2022/06/01 02:14:40;;;;;;;2.53;0.87;;;14.30;33.70;;;;;;4952629;28;20190;-74
2022/06/01 02:17:09;;;;;;;3.67;0.90;;;14.30;33.80;;;;;;4951710;29;20199;-77
2022/06/01 02:20:00;;;;;;;0.97;0.90;;;14.40;34.20;;;;;;4952562;29;20278;-72
2022/06/01 02:22:27;;;;;;;2.00;1.07;;;14.30;34.00;;;;;;4936814;29;20199;-75
2022/06/01 02:24:54;;;;;;;1.00;0.90;;;14.30;34.00;;;;;;4950575;28;20310;-74
2022/06/01 02:27:23;;;;;;;3.03;0.87;;;14.30;34.20;;;;;;4953042;28;20552;-76
2022/06/01 02:30:07;;;;;;;1.20;0.70;;;14.20;33.70;;;;;;4952558;29;20638;-73
2022/06/01 02:32:37;;;;;;;2.80;0.80;;;14.30;33.90;;;;;;4954230;28;20262;-74
2022/06/01 02:35:07;;;;;;;3.97;0.90;;;14.30;34.40;;;;;;4952294;28;20254;-75
2022/06/01 02:37:39;;;;;;;1.47;0.90;;;14.30;33.70;;;;;;4957055;28;20200;-74
2022/06/01 02:40:11;;;;;;;1.93;0.80;;;14.30;34.00;;;;;;4957966;29;20183;-71
2022/06/01 02:42:50;;;;;;;1.43;0.73;;;14.40;34.30;;;;;;4957405;29;20673;-76
2022/06/01 02:45:26;;;;;;;1.43;0.93;;;14.40;33.90;;;;;;4956470;28;20206;-74
2022/06/01 02:47:59;;;;;;;5.60;0.90;;;14.60;33.70;;;;;;4940628;29;20187;-73
2022/06/01 02:50:29;;;;;;;1.53;0.77;;;14.50;33.50;;;;;;4955432;28;20578;-73
2022/06/01 02:52:57;;;;;;;2.03;0.87;;;14.30;34.10;;;;;;4952139;28;20182;-73
2022/06/01 02:55:25;;;;;;;1.07;0.73;;;13.90;34.30;;;;;;4954412;29;20646;-75
2022/06/01 02:57:53;;;;;;;1.30;0.80;;;13.60;35.60;;;;;;4955047;28;20166;-74
2022/06/01 03:00:27;;;;;;;0.87;0.70;;;13.60;35.60;;;;;;4953073;28;20195;-77
2022/06/01 03:02:59;;;;;;;5.07;1.00;;;13.50;35.80;;;;;;4953061;28;20210;-73
2022/06/01 03:05:30;;;;;;;3.37;0.97;;;13.50;35.80;;;;;;4951219;28;20203;-72
2022/06/01 03:07:58;;;;;;;0.90;0.80;;;13.70;36.20;;;;;;4952618;29;20246;-75
2022/06/01 03:10:26;;;;;;;1.90;0.80;;;14.20;35.00;;;;;;4951053;29;20192;-74
2022/06/01 03:12:54;;;;;;;1.60;0.90;;;13.80;35.30;;;;;;4954867;28;20184;-75
2022/06/01 03:15:24;;;;;;;2.97;1.07;;;13.80;35.50;;;;;;4949135;29;20234;-72
2022/06/01 03:17:53;;;;;;;1.10;0.80;;;14.60;35.00;;;;;;4952298;29;20183;-73
2022/06/01 03:20:23;;;;;;;4.67;1.13;;;15.10;33.90;;;;;;4945895;28;20187;-72
2022/06/01 03:22:50;;;;;;;3.73;0.90;;;15.10;33.90;;;;;;4953303;28;20211;-72
2022/06/01 03:25:22;;;;;;;1.37;0.77;;;14.80;33.50;;;;;;4953669;29;20268;-78
2022/06/01 03:27:51;;;;;;;1.60;0.80;;;15.00;33.10;;;;;;4953930;29;20246;-77
2022/06/01 03:30:19;;;;;;;1.03;0.90;;;15.00;33.60;;;;;;4951213;28;21010;-75
2022/06/01 03:32:48;;;;;;;2.67;0.87;;;14.80;33.10;;;;;;4944486;29;20191;-72
2022/06/01 03:35:17;;;;;;;3.73;0.80;;;14.90;33.40;;;;;;4952368;28;20187;-72
2022/06/01 03:37:45;;;;;;;2.80;1.20;;;15.20;33.50;;;;;;4946501;28;20202;-75
2022/06/01 03:40:14;;;;;;;1.20;0.70;;;15.30;33.00;;;;;;4952682;28;20196;-74
2022/06/01 03:42:41;;;;;;;2.00;0.77;;;15.20;32.50;;;;;;4953604;29;20192;-80
2022/06/01 03:47:57;;;;;;;1.53;0.97;;;15.20;32.40;;;;;;4950888;28;20211;-75
2022/06/01 03:50:26;;;;;;;4.33;1.00;;;15.30;32.30;;;;;;4947910;29;20218;-77
2022/06/01 03:52:54;;;;;;;0.70;0.70;;;15.30;32.40;;;;;;4950400;28;20246;-77
2022/06/01 03:55:22;;;;;;;2.47;0.90;;;15.50;32.30;;;;;;4946815;28;20556;-72
2022/06/01 03:57:49;;;;;;;5.03;0.90;;;15.50;32.00;;;;;;4951999;28;20198;-72
2022/06/01 04:00:23;;;;;;;0.80;0.70;;;15.20;32.20;;;;;;4948750;28;20655;-74
2022/06/01 04:02:51;;;;;;;1.00;0.90;;;15.30;32.30;;;;;;4946267;28;20207;-79
2022/06/01 04:05:21;;;;;;;4.33;0.80;;;15.50;32.50;;;;;;4953839;29;20257;-73
2022/06/01 04:07:48;;;;;;;1.33;0.87;;;15.70;32.40;;;;;;4955972;28;20624;-74
2022/06/01 04:10:16;;;;;;;2.73;0.90;;;15.90;32.50;;;;;;4955675;28;20216;-78
2022/06/01 04:12:43;;;;;;;2.20;0.80;;;15.80;32.60;;;;;;4945844;28;20186;-73
2022/06/01 04:15:11;;;;;;;2.20;0.70;;;15.70;32.70;;;;;;4953276;28;20666;-74
2022/06/01 04:17:39;;;;;;;2.53;0.80;;;15.60;32.90;;;;;;4954044;29;20196;-75
2022/06/01 04:20:08;;;;;;;1.57;0.63;;;15.40;33.20;;;;;;4952652;29;20534;-72
2022/06/01 04:22:39;;;;;;;3.03;0.93;;;15.30;33.50;;;;;;4949763;28;20524;-73
2022/06/01 04:25:08;;;;;;;1.43;0.70;;;15.30;33.60;;;;;;4946179;29;20331;-75
2022/06/01 04:27:38;;;;;;;1.10;0.80;;;15.30;34.10;;;;;;4950127;28;20590;-75
2022/06/01 04:30:08;;;;;;;2.57;0.80;;;15.30;34.20;;;;;;4949755;29;20233;-75
2022/06/01 04:32:36;;;;;;;4.83;0.73;;;15.50;34.30;;;;;;4945612;28;20615;-77
2022/06/01 04:35:05;;;;;;;1.07;0.77;;;15.60;34.00;;;;;;4950704;28;20630;-75
2022/06/01 04:37:33;;;;;;;2.13;0.90;;;15.80;34.40;;;;;;4945984;29;20193;-71
2022/06/01 04:40:00;;;;;;;3.40;0.80;;;15.80;33.70;;;;;;4948708;29;20198;-73
2022/06/01 04:42:27;;;;;;;1.77;0.70;;;15.80;33.60;;;;;;4947142;28;20192;-76
2022/06/01 04:44:55;;;;;;;2.97;0.77;;;16.00;33.90;;;;;;4950086;29;20206;-75
2022/06/01 04:47:22;;;;;;;2.00;1.00;;;15.80;34.20;;;;;;4944211;29;20282;-74
2022/06/01 04:49:50;;;;;;;3.43;0.63;;;15.80;34.20;;;;;;4949358;29;20216;-74
2022/06/01 04:52:17;;;;;;;2.07;0.80;;;16.30;34.30;;;;;;4943944;28;20527;-72
2022/06/01 04:54:47;;;;;;;1.40;0.70;;;16.30;33.90;;;;;;4948419;29;20213;-75
2022/06/01 04:57:15;;;;;;;1.13;0.73;;;16.10;33.80;;;;;;4950689;29;20617;-72
2022/06/01 04:59:42;;;;;;;1.20;0.80;;;16.10;34.30;;;;;;4950169;28;20217;-72
2022/06/01 05:02:09;;;;;;;1.97;0.63;;;16.30;33.90;;;;;;4944887;28;20273;-75
2022/06/01 05:04:37;;;;;;;2.90;0.80;;;15.90;34.50;;;;;;4948417;29;20328;-74
2022/06/01 05:07:04;;;;;;;1.90;0.73;;;15.70;35.00;;;;;;4947730;29;20192;-78
2022/06/01 05:09:32;;;;;;;1.77;0.87;;;15.80;35.10;;;;;;4951355;28;20276;-78
2022/06/01 05:11:59;;;;;;;5.53;0.70;;;16.30;34.60;;;;;;4946953;29;20215;-75
2022/06/01 05:14:27;;;;;;;0.97;0.80;;;16.00;34.80;;;;;;4949507;29;20566;-77
2022/06/01 05:16:58;;;;;;;2.00;0.97;;;15.80;35.00;;;;;;4951207;29;20207;-77
2022/06/01 05:19:26;;;;;;;2.83;0.80;;;15.70;35.00;;;;;;4934246;29;20201;-73
2022/06/01 05:21:53;;;;;;;2.07;0.80;;;15.50;35.80;;;;;;4945781;28;20552;-72
2022/06/01 05:24:21;;;;;;;2.77;1.27;;;15.50;35.70;;;;;;4945462;29;20227;-75
2022/06/01 05:26:49;;;;;;;1.10;0.90;;;15.40;35.80;;;;;;4947871;29;20200;-79
2022/06/01 05:29:16;;;;;;;1.37;0.83;;;15.60;36.00;;;;;;4949998;28;20193;-78
2022/06/01 05:31:45;;;;;;;3.73;1.00;;;15.80;35.50;;;;;;4941537;29;20191;-79
2022/06/01 05:34:12;;;;;;;2.40;0.80;;;16.00;35.80;;;;;;4947013;28;20202;-77
2022/06/01 05:36:40;;;;;;;3.80;1.03;;;16.00;35.50;;;;;;4946958;28;20187;-74
2022/06/01 05:39:07;;;;;;;6.00;1.10;;;15.60;36.20;;;;;;4947927;28;20196;-77
2022/06/01 05:41:35;;;;;;;2.37;1.00;;;15.30;37.00;;;;;;4947957;29;20187;-72
2022/06/01 05:44:02;;;;;;;2.53;0.70;;;15.40;36.70;;;;;;4952645;28;20333;-76
2022/06/01 05:46:30;;;;;;;2.47;0.80;;;15.20;37.10;;;;;;4947435;29;20282;-75
2022/06/01 05:48:57;;;;;;;3.00;0.87;;;15.10;37.60;;;;;;4951162;28;20188;-79
2022/06/01 05:51:25;;;;;;;3.23;0.97;;;15.30;37.30;;;;;;4947656;29;20315;-77
2022/06/01 05:53:52;;;;;;;1.97;0.90;;;15.20;37.50;;;;;;4946779;28;20270;-79
2022/06/01 05:56:20;;;;;;;6.90;1.57;;;15.40;37.60;;;;;;4945975;29;20187;-77
2022/06/01 05:58:48;;;;;;;2.53;1.17;;;15.60;37.30;;;;;;4949345;28;20198;-76
2022/06/01 06:01:17;;;;;;;1.07;0.73;;;15.50;36.90;;;;;;4948533;28;20195;-72
2022/06/01 06:03:44;;;;;;;1.57;0.90;;;15.20;38.00;;;;;;4950538;28;20630;-75
2022/06/01 06:06:17;;;;;;;1.93;1.00;;;14.50;38.90;;;;;;4952570;28;20287;-74
2022/06/01 06:09:00;;;;;;;1.17;0.93;;;14.00;40.30;;;;;;4948371;28;20195;-75
2022/06/01 06:11:31;;;;;;;1.10;1.00;;;13.90;41.20;;;;;;4949406;28;20183;-73
2022/06/01 06:13:59;;;;;;;1.87;1.20;;;13.90;41.50;;;;;;4953852;29;20192;-73
2022/06/01 06:16:29;;;;;;;1.60;0.90;;;14.10;40.90;;;;;;4957206;28;20613;-74
2022/06/01 06:18:56;;;;;;;2.60;1.07;;;14.00;41.00;;;;;;4951938;28;20179;-75
2022/06/01 06:21:29;;;;;;;2.97;1.00;;;13.80;41.80;;;;;;4958169;28;20661;-71
2022/06/01 06:24:11;;;;;;;3.63;1.10;;;13.70;41.50;;;;;;4954013;28;20278;-76
2022/06/01 06:26:42;;;;;;;1.17;1.03;;;13.70;42.10;;;;;;4951939;28;20187;-77
2022/06/01 06:29:11;;;;;;;8.10;1.00;;;13.40;42.50;;;;;;4954246;28;20192;-75
2022/06/01 06:31:39;;;;;;;1.13;0.90;;;13.30;42.90;;;;;;4957184;28;20187;-72
2022/06/01 06:34:07;;;;;;;3.70;1.10;;;13.30;43.30;;;;;;4956321;28;20190;-76
2022/06/01 06:36:35;;;;;;;1.33;1.07;;;13.20;43.30;;;;;;4956456;28;20195;-74
2022/06/01 06:39:03;;;;;;;1.30;0.93;;;13.20;43.80;;;;;;4957314;29;20179;-72
2022/06/01 06:41:31;;;;;;;4.67;1.00;;;13.20;43.60;;;;;;4957209;29;20639;-74
2022/06/01 06:43:59;;;;;;;4.77;1.00;;;13.10;43.90;;;;;;4956566;28;20302;-76
2022/06/01 06:46:28;;;;;;;1.80;0.93;;;13.10;44.00;;;;;;4956066;28;20585;-79
2022/06/01 06:48:55;;;;;;;2.50;1.10;;;13.00;44.20;;;;;;4959361;28;20586;-77
2022/06/01 06:51:25;;;;;;;4.60;1.20;;;12.90;44.50;;;;;;4947907;28;20186;-76
2022/06/01 06:53:52;;;;;;;1.90;1.07;;;12.80;44.80;;;;;;4956400;28;20183;-79
2022/06/01 06:56:21;;;;;;;1.57;1.00;;;12.80;45.50;;;;;;4956962;28;20191;-80
2022/06/01 06:58:49;;;;;;;2.30;1.20;;;12.70;45.80;;;;;;4957011;28;20187;-78
2022/06/01 07:01:17;;;;;;;2.50;1.47;;;12.70;46.00;;;;;;4956693;28;20175;-84
2022/06/01 07:03:44;;;;;;;1.93;1.10;;;12.60;46.40;;;;;;4956991;28;20262;-79
2022/06/01 07:06:12;;;;;;;4.00;1.40;;;12.60;46.00;;;;;;4957113;28;20186;-77
2022/06/01 07:08:43;;;;;;;2.57;1.00;;;12.50;46.30;;;;;;4956267;28;20187;-76
2022/06/01 07:11:12;;;;;;;3.03;1.13;;;12.50;46.50;;;;;;4957003;28;20179;-77
2022/06/01 07:13:40;;;;;;;1.53;1.07;;;12.50;46.80;;;;;;4956884;29;20183;-73
2022/06/01 07:16:09;;;;;;;1.20;1.00;;;12.30;46.90;;;;;;4955662;28;20262;-72
2022/06/01 07:18:39;;;;;;;1.60;1.10;;;12.40;46.60;;;;;;4954097;28;20191;-75
2022/06/01 07:21:07;;;;;;;3.13;1.50;;;12.40;47.00;;;;;;4956901;28;20184;-77
2022/06/01 07:23:37;;;;;;;2.43;1.30;;;12.30;47.30;;;;;;4962131;28;20337;-73
2022/06/01 07:26:08;;;;;;;1.40;1.17;;;12.30;47.60;;;;;;4943855;29;20227;-72
2022/06/01 07:28:36;;;;;;;3.87;1.27;;;12.30;47.50;;;;;;4956014;28;20183;-73
2022/06/01 07:31:04;;;;;;;2.80;1.10;;;12.30;48.00;;;;;;4954802;28;20178;-73
2022/06/01 07:33:31;;;;;;;3.47;1.20;;;12.30;48.10;;;;;;4951846;28;20194;-75
2022/06/01 07:36:00;;;;;;;2.97;1.40;;;12.30;48.00;;;;;;4954921;28;20190;-75
2022/06/01 07:44:20;;;;;;;2.97;1.00;;;12.20;48.70;;;;;;4954926;28;20283;-75
2022/06/01 07:46:48;;;;;;;2.23;1.20;;;12.20;48.50;;;;;;4956269;28;20631;-75
2022/06/01 07:49:18;;;;;;;5.70;1.30;;;12.20;48.60;;;;;;4955881;28;20290;-76
2022/06/01 07:51:47;;;;;;;3.13;1.00;;;12.20;49.00;;;;;;4953596;28;20179;-74
2022/06/01 07:54:15;;;;;;;1.40;1.00;;;12.20;49.00;;;;;;4955695;28;20187;-71
2022/06/01 07:56:46;;;;;;;1.47;1.10;;;12.20;49.60;;;;;;4938956;29;20183;-75
2022/06/01 07:59:14;;;;;;;2.10;1.10;;;12.10;49.50;;;;;;4955221;29;20171;-71
2022/06/01 08:01:41;;;;;;;1.90;1.47;;;12.20;49.60;;;;;;4955469;28;20179;-73
2022/06/01 08:04:10;;;;;;;1.73;1.20;;;12.20;49.70;;;;;;4954755;28;20218;-71
2022/06/01 08:06:38;;;;;;;1.20;1.10;;;12.10;49.80;;;;;;4955812;28;20510;-73
2022/06/01 08:09:06;;;;;;;3.83;1.40;;;12.10;50.00;;;;;;4952424;28;20194;-78
2022/06/01 08:14:19;;;;;;;1.17;1.07;;;12.00;50.40;;;;;;4945663;29;20191;-73
2022/06/01 08:16:47;;;;;;;0.93;0.90;;;12.10;50.40;;;;;;4945862;28;20267;-72
2022/06/01 08:19:15;;;;;;;3.37;1.87;;;12.10;50.40;;;;;;4955264;29;20187;-78
2022/06/01 08:21:43;;;;;;;3.10;1.50;;;12.10;50.70;;;;;;4955341;29;20650;-74
2022/06/01 08:24:12;;;;;;;1.00;0.90;;;12.10;50.70;;;;;;4954692;29;20268;-75
2022/06/01 08:26:39;;;;;;;1.87;1.17;;;12.10;51.00;;;;;;4955822;29;20203;-72
2022/06/01 08:29:07;;;;;;;2.17;1.00;;;12.00;51.00;;;;;;4949642;28;20233;-73
2022/06/01 08:31:35;;;;;;;4.27;1.27;;;12.00;51.40;;;;;;4955592;28;20209;-73
2022/06/01 08:34:04;;;;;;;4.80;1.27;;;11.90;51.60;;;;;;4937567;29;20178;-73
2022/06/01 08:36:33;;;;;;;1.30;1.10;;;11.90;52.00;;;;;;4955522;29;20273;-76
2022/06/01 08:39:00;;;;;;;1.43;1.00;;;11.80;52.00;;;;;;4954949;28;20186;-82
2022/06/01 08:41:35;;;;;;;1.93;1.30;;;11.80;52.20;;;;;;4933652;29;20550;-72
2022/06/01 08:44:30;;;;;;;2.40;1.20;;;11.80;52.30;;;;;;4951006;28;20214;-77
2022/06/01 08:47:03;;;;;;;1.87;1.00;;;11.80;52.70;;;;;;4943248;28;20669;-80
2022/06/01 08:49:33;;;;;;;1.67;1.00;;;11.70;53.00;;;;;;4950805;28;20642;-72
2022/06/01 08:52:01;;;;;;;2.57;1.23;;;11.70;53.30;;;;;;4952254;28;20187;-74
2022/06/01 08:54:29;;;;;;;3.13;1.30;;;11.70;53.30;;;;;;4954391;29;20230;-73
2022/06/01 08:57:22;;;;;;;1.20;1.10;;;11.70;53.40;;;;;;4955073;29;20209;-72
2022/06/01 09:00:14;;;;;;;1.47;1.23;;;11.70;53.60;;;;;;4944200;29;20183;-73
2022/06/01 09:03:11;;;;;;;1.43;1.30;;;11.70;53.70;;;;;;4960423;28;20182;-75
2022/06/01 09:05:44;;;;;;;3.53;1.50;;;11.70;53.70;;;;;;4944072;29;20284;-72
2022/06/01 09:08:35;;;;;;;2.73;1.40;;;11.70;53.70;;;;;;4954361;28;20545;-73
2022/06/01 09:11:11;;;;;;;2.80;1.40;;;11.70;53.80;;;;;;4955001;28;20245;-73
2022/06/01 09:14:02;;;;;;;3.37;1.60;;;11.70;53.90;;;;;;4954061;29;20182;-76
2022/06/01 09:16:41;;;;;;;2.77;1.60;;;11.70;54.10;;;;;;4954479;28;20179;-74
2022/06/01 09:19:16;;;;;;;1.77;1.50;;;11.60;54.60;;;;;;4937537;28;20187;-75
2022/06/01 09:24:38;;;;;;;2.20;1.60;;;11.50;54.90;;;;;;4954667;29;20325;-77
2022/06/01 09:27:09;;;;;;;3.40;1.97;;;11.30;55.30;;;;;;4954887;28;20200;-74
2022/06/01 09:29:56;;;;;;;1.70;1.40;;;11.30;55.90;;;;;;4951160;28;20201;-75
2022/06/01 09:32:33;;;;;;;1.53;1.33;;;11.20;56.20;;;;;;4953753;28;20174;-79
2022/06/01 09:35:09;;;;;;;2.37;2.07;;;11.20;56.00;;;;;;4954880;28;20207;-74
2022/06/01 09:37:46;;;;;;;1.80;1.60;;;11.20;56.40;;;;;;4952621;28;20307;-76
2022/06/01 09:40:28;;;;;;;3.47;1.77;;;11.20;56.50;;;;;;4954552;28;20187;-77
2022/06/01 09:42:59;;;;;;;4.67;2.50;;;11.00;56.90;;;;;;4937078;29;20186;-76
2022/06/01 09:45:39;;;;;;;1.83;1.70;;;11.00;57.30;;;;;;4953525;28;20201;-82
2022/06/01 09:48:15;;;;;;;3.27;1.70;;;10.90;57.40;;;;;;4955450;28;20273;-77
2022/06/01 09:50:45;;;;;;;2.33;1.60;;;10.90;57.70;;;;;;4940842;28;20702;-72
2022/06/01 09:53:18;;;;;;;2.80;1.60;;;10.80;57.60;;;;;;4947273;29;20182;-79
2022/06/01 09:55:59;;;;;;;4.23;2.07;;;10.90;57.50;;;;;;4960154;28;20189;-76
2022/06/01 10:07:28;;;;;;;2.43;1.50;;;10.80;57.70;;;;;;4959505;28;20216;-77
2022/06/01 10:10:01;;;;;;;2.00;1.80;;;10.70;57.90;;;;;;4957089;28;20516;-78
2022/06/01 10:12:47;;;;;;;4.70;2.23;;;10.60;58.40;;;;;;4947513;28;20191;-80
2022/06/01 10:15:42;;;;;;;3.77;2.13;;;10.60;58.50;;;;;;4942624;28;20202;-76
2022/06/01 10:18:24;;;;;;;9.50;2.57;;;10.50;58.80;;;;;;4945606;28;20551;-78
2022/06/01 10:21:01;;;;;;;3.40;2.37;;;10.50;58.70;;;;;;4959603;28;20729;-76
2022/06/01 10:23:43;;;;;;;3.97;2.20;;;10.50;59.00;;;;;;4956475;28;20217;-74
2022/06/01 10:26:36;;;;;;;5.40;2.23;;;10.60;58.40;;;;;;4947926;28;20693;-74
2022/06/01 10:29:17;;;;;;;3.80;2.27;;;10.60;58.30;;;;;;4952277;28;20229;-78
2022/06/01 10:32:00;;;;;;;2.70;2.17;;;10.50;58.50;;;;;;4956861;28;20201;-78
2022/06/01 10:34:37;;;;;;;3.07;2.37;;;10.50;58.50;;;;;;4960460;28;20198;-74
2022/06/01 10:37:26;;;;;;;4.70;2.47;;;10.40;58.60;;;;;;4960286;28;20185;-76
2022/06/01 10:40:06;;;;;;;2.13;1.93;;;10.50;58.70;;;;;;4949138;29;20186;-74
2022/06/01 10:46:25;;;;;;;3.03;2.10;;;10.50;58.40;;;;;;4953162;29;20209;-74
2022/06/01 10:48:58;;;;;;;2.83;1.80;;;10.60;58.50;;;;;;4942316;28;20217;-73
2022/06/01 10:51:32;;;;;;;2.27;1.83;;;10.50;58.60;;;;;;4959086;28;20182;-74
2022/06/01 10:54:06;;;;;;;2.70;1.90;;;10.50;58.60;;;;;;4959774;28;20190;-76
2022/06/01 10:56:34;;;;;;;2.10;1.63;;;10.60;58.60;;;;;;4929628;28;20551;-75
2022/06/01 10:59:08;;;;;;;1.70;1.60;;;10.70;58.50;;;;;;4937645;29;20225;-72
2022/06/01 11:02:06;;;;;;;2.00;1.77;;;10.60;58.70;;;;;;4956915;28;20587;-71
2022/06/01 11:04:43;;;;;;;2.57;1.77;;;10.70;58.50;;;;;;4940308;29;20225;-77
2022/06/01 11:07:33;;;;;;;2.43;1.60;;;10.70;58.90;;;;;;4931148;29;20285;-74
2022/06/01 11:10:06;;;;;;;4.00;1.77;;;10.70;58.70;;;;;;4952044;28;20182;-75
2022/06/01 11:13:12;;;;;;;3.07;1.90;;;10.70;58.80;;;;;;4949861;29;20230;-75
2022/06/01 11:16:10;;;;;;;3.00;1.83;;;10.70;58.90;;;;;;4955222;29;20260;-76
2022/06/01 11:18:43;;;;;;;2.20;1.47;;;10.70;59.10;;;;;;4956198;28;20302;-74
2022/06/01 11:21:23;;;;;;;3.27;1.87;;;10.60;59.50;;;;;;4953325;29;20337;-71
2022/06/01 11:23:58;;;;;;;4.07;2.17;;;10.70;59.30;;;;;;4955334;28;20211;-76
2022/06/01 11:26:49;;;;;;;3.47;1.87;;;10.70;59.60;;;;;;4956041;28;20287;-76
2022/06/01 11:29:41;;;;;;;4.43;1.90;;;10.70;59.40;;;;;;4948885;28;20186;-73
2022/06/01 11:32:14;;;;;;;4.90;1.90;;;10.60;59.80;;;;;;4952817;28;20697;-73
2022/06/01 11:35:20;;;;;;;2.53;1.60;;;10.70;59.80;;;;;;4956831;29;20533;-74
2022/06/01 11:38:06;;;;;;;2.83;1.60;;;10.60;60.30;;;;;;4948089;29;20351;-79
2022/06/01 11:40:33;;;;;;;2.77;1.80;;;10.70;60.10;;;;;;4956429;29;20828;-74
2022/06/01 11:43:31;;;;;;;1.90;1.70;;;10.60;60.50;;;;;;4955850;28;20579;-74
2022/06/01 11:46:09;;;;;;;2.30;1.60;;;10.60;60.60;;;;;;4919731;28;20201;-74
2022/06/01 11:48:39;;;;;;;2.37;1.27;;;10.70;60.60;;;;;;4956705;28;20216;-73
2022/06/01 11:51:14;;;;;;;2.00;1.57;;;10.70;60.40;;;;;;4955329;28;20222;-76
2022/06/01 11:54:17;;;;;;;4.30;1.57;;;10.70;60.70;;;;;;4955228;28;20187;-75
2022/06/01 11:56:59;;;;;;;1.60;1.50;;;10.60;61.10;;;;;;4956705;28;20180;-73
2022/06/01 11:59:32;;;;;;;3.63;1.60;;;10.60;60.90;;;;;;4955870;29;20265;-79
2022/06/01 12:02:18;;;;;;;1.77;1.67;;;10.60;61.30;;;;;;4942930;28;20183;-79
2022/06/01 12:05:02;;;;;;;2.20;1.50;;;10.50;61.60;;;;;;4956633;28;20215;-77
2022/06/01 12:07:46;;;;;;;1.70;1.60;;;10.60;61.70;;;;;;4956673;29;20182;-77
2022/06/01 12:10:21;;;;;;;1.57;1.40;;;10.50;61.90;;;;;;4954485;28;20195;-76
2022/06/01 12:13:01;;;;;;;1.70;1.60;;;10.50;62.10;;;;;;4953284;29;20272;-75
2022/06/01 12:15:40;;;;;;;1.50;1.40;;;10.50;62.40;;;;;;4956008;28;20273;-77
2022/06/01 12:18:20;;;;;;;2.87;1.63;;;10.50;62.50;;;;;;4941254;29;20192;-74
2022/06/01 12:20:55;;;;;;;1.60;1.50;;;10.60;62.60;;;;;;4955030;28;20194;-71
2022/06/01 12:29:13;;;;;;;1.57;1.30;;;10.70;62.30;;;;;;4947947;29;20242;-75
2022/06/01 12:32:09;;;;;;;2.40;1.30;;;10.70;62.50;;;;;;4955100;28;20562;-74
2022/06/01 12:34:46;;;;;;;2.50;1.30;;;10.70;62.70;;;;;;4946627;28;20197;-75
2022/06/01 12:37:30;;;;;;;2.00;1.50;;;10.70;62.70;;;;;;4955530;28;20179;-74
2022/06/01 12:40:02;;;;;;;1.40;1.30;;;10.70;62.80;;;;;;4955779;28;20179;-75
2022/06/01 12:42:38;;;;;;;1.40;1.30;;;10.80;62.50;;;;;;4955411;29;20217;-74
2022/06/01 12:45:16;;;;;;;2.63;1.40;;;10.80;62.90;;;;;;4946696;28;20325;-74
2022/06/01 12:48:08;;;;;;;2.40;1.33;;;10.80;62.90;;;;;;4955141;28;20198;-74
2022/06/01 12:50:53;;;;;;;2.37;1.37;;;10.80;63.00;;;;;;4955657;28;20728;-76
2022/06/01 12:53:48;;;;;;;1.40;1.30;;;10.80;62.90;;;;;;4954697;28;20515;-76
2022/06/01 12:56:16;;;;;;;1.63;1.20;;;10.80;62.70;;;;;;4954690;29;20197;-73
2022/06/01 12:58:48;;;;;;;1.53;1.27;;;10.80;62.90;;;;;;4954445;29;20248;-79
2022/06/01 13:01:19;;;;;;;3.00;1.47;;;10.80;62.80;;;;;;4954926;28;20194;-73
2022/06/01 13:03:58;;;;;;;1.43;1.33;;;10.80;62.80;;;;;;4954987;29;20218;-73
2022/06/01 13:06:26;;;;;;;2.07;1.30;;;10.80;63.00;;;;;;4954779;28;20187;-74
2022/06/01 13:09:27;;;;;;;1.53;1.30;;;10.80;63.10;;;;;;4954692;28;20715;-72
2022/06/01 13:12:01;;;;;;;3.00;1.40;;;10.70;63.30;;;;;;4941085;28;20201;-75
2022/06/01 13:14:31;;;;;;;2.77;1.30;;;10.70;63.50;;;;;;4954386;28;20201;-74
2022/06/01 13:17:18;;;;;;;1.90;1.40;;;10.80;63.10;;;;;;4954724;28;20611;-78
2022/06/01 13:20:01;;;;;;;1.33;1.23;;;10.80;63.50;;;;;;4954256;28;20224;-77
2022/06/01 13:22:36;;;;;;;1.30;1.20;;;10.80;63.30;;;;;;4941885;29;20265;-73
2022/06/01 13:25:12;;;;;;;1.37;1.27;;;10.80;63.10;;;;;;4952315;29;20238;-80
2022/06/01 13:27:40;;;;;;;1.40;1.30;;;10.80;63.10;;;;;;4954219;28;20238;-74
2022/06/01 13:30:08;;;;;;;1.90;1.30;;;10.80;63.50;;;;;;4954215;28;20516;-77
2022/06/01 13:32:42;;;;;;;2.30;1.50;;;10.80;63.50;;;;;;4954853;28;20190;-75
2022/06/01 13:35:22;;;;;;;2.87;1.40;;;10.80;63.70;;;;;;4954827;28;20185;-75
2022/06/01 13:37:54;;;;;;;1.93;1.57;;;10.80;63.50;;;;;;4954219;29;20569;-74
2022/06/01 13:40:29;;;;;;;1.53;1.40;;;10.80;63.40;;;;;;4954544;28;20581;-75
2022/06/01 13:43:11;;;;;;;1.33;1.20;;;10.80;63.60;;;;;;4954408;28;20516;-74
2022/06/01 13:46:04;;;;;;;2.20;1.27;;;10.80;63.60;;;;;;4954745;28;20240;-74
2022/06/01 13:48:36;;;;;;;1.80;1.30;;;10.80;63.60;;;;;;4948090;28;20179;-75
2022/06/01 13:51:15;;;;;;;5.03;1.20;;;10.80;63.60;;;;;;4953244;28;20187;-76
2022/06/01 13:53:47;;;;;;;2.03;1.30;;;10.80;63.60;;;;;;4954278;28;20273;-74
2022/06/01 13:56:18;;;;;;;1.50;1.30;;;10.80;63.60;;;;;;4954272;28;20183;-70